createdAt,value
2017-10-05T00:02:11.576Z,45.00
2017-10-05T00:04:39.197Z,45.20
2017-10-05T00:07:06.787Z,45.00
2017-10-05T00:09:34.424Z,44.90
2017-10-05T00:12:02.020Z,44.90
2017-10-05T00:14:29.755Z,44.90
2017-10-05T00:16:57.392Z,44.70
2017-10-05T00:19:25.049Z,44.90
2017-10-05T00:21:52.634Z,45.10
2017-10-05T00:24:20.234Z,44.90
2017-10-05T00:26:49.339Z,44.90
2017-10-05T00:29:17.761Z,45.10
2017-10-05T00:31:45.347Z,45.10
2017-10-05T00:34:12.953Z,45.30
2017-10-05T00:36:41.509Z,45.50
2017-10-05T00:39:09.083Z,45.40
2017-10-05T00:41:37.495Z,45.10
2017-10-05T00:44:05.079Z,45.10
2017-10-05T00:46:32.673Z,45.20
2017-10-05T00:49:01.068Z,45.50
2017-10-05T00:51:29.453Z,45.00
2017-10-05T00:53:57.122Z,45.00
2017-10-05T00:56:24.732Z,45.10
2017-10-05T00:58:52.565Z,45.00
2017-10-05T01:01:20.199Z,45.10
2017-10-05T01:03:48.563Z,45.00
2017-10-05T01:06:16.937Z,45.00
2017-10-05T01:08:45.328Z,45.00
2017-10-05T01:11:13.688Z,45.00
2017-10-05T01:13:41.315Z,45.00
2017-10-05T01:16:08.985Z,45.20
2017-10-05T01:18:36.677Z,45.20
2017-10-05T01:21:05.347Z,46.00
2017-10-05T01:23:32.967Z,45.10
2017-10-05T01:26:00.611Z,45.10
2017-10-05T01:28:28.209Z,45.10
2017-10-05T01:30:55.947Z,45.20
2017-10-05T01:33:23.621Z,45.20
2017-10-05T01:35:51.422Z,45.20
2017-10-05T01:38:19.035Z,45.30
2017-10-05T01:40:46.660Z,45.10
2017-10-05T01:43:14.254Z,45.10
2017-10-05T01:45:41.843Z,45.50
2017-10-05T01:48:09.457Z,45.10
2017-10-05T01:50:37.824Z,44.90
2017-10-05T01:53:06.221Z,45.10
2017-10-05T01:55:33.794Z,45.00
2017-10-05T01:58:01.369Z,45.00
2017-10-05T02:00:28.972Z,44.90
2017-10-05T02:02:56.562Z,45.00
2017-10-05T02:05:24.893Z,45.10
2017-10-05T02:07:52.521Z,45.00
2017-10-05T02:10:20.181Z,45.00
2017-10-05T02:12:47.813Z,45.10
2017-10-05T02:15:16.137Z,45.00
2017-10-05T02:17:43.752Z,44.90
2017-10-05T02:20:12.135Z,45.10
2017-10-05T02:22:40.475Z,45.40
2017-10-05T02:25:08.198Z,45.40
2017-10-05T02:27:35.820Z,45.40
2017-10-05T02:30:03.414Z,45.20
2017-10-05T02:32:31.051Z,45.10
2017-10-05T02:34:59.483Z,45.30
2017-10-05T02:37:27.046Z,45.90
2017-10-05T02:39:54.656Z,45.80
2017-10-05T02:42:23.268Z,45.20
2017-10-05T02:44:50.870Z,45.20
2017-10-05T02:47:18.447Z,45.20
2017-10-05T02:49:46.838Z,45.20
2017-10-05T02:52:15.284Z,45.20
2017-10-05T02:54:42.871Z,45.20
2017-10-05T02:57:11.327Z,45.20
2017-10-05T02:59:38.980Z,45.20
2017-10-05T03:02:07.432Z,45.20
2017-10-05T03:04:35.028Z,45.10
2017-10-05T03:07:02.747Z,45.20
2017-10-05T03:09:30.353Z,45.10
2017-10-05T03:11:57.942Z,45.20
2017-10-05T03:14:26.355Z,45.10
2017-10-05T03:16:53.971Z,45.10
2017-10-05T03:19:21.604Z,45.10
2017-10-05T03:21:49.382Z,45.50
2017-10-05T03:24:17.006Z,45.40
2017-10-05T03:26:44.596Z,45.20
2017-10-05T03:29:12.179Z,45.20
2017-10-05T03:31:40.575Z,45.10
2017-10-05T03:34:08.163Z,45.20
2017-10-05T03:36:35.830Z,45.10
2017-10-05T03:39:03.420Z,45.20
2017-10-05T03:41:31.002Z,45.20
2017-10-05T03:43:59.380Z,45.10
2017-10-05T03:46:27.742Z,45.10
2017-10-05T03:48:55.326Z,45.10
2017-10-05T03:51:23.700Z,45.10
2017-10-05T03:53:52.092Z,45.20
2017-10-05T03:56:20.451Z,45.10
2017-10-05T03:58:48.067Z,45.10
2017-10-05T04:01:15.923Z,45.80
2017-10-05T04:03:43.602Z,45.10
2017-10-05T04:06:11.182Z,45.10
2017-10-05T04:08:38.758Z,45.20
2017-10-05T04:11:07.136Z,45.10
2017-10-05T04:13:34.735Z,45.10
2017-10-05T04:16:02.386Z,45.20
2017-10-05T04:18:29.988Z,45.30
2017-10-05T04:20:57.588Z,45.40
2017-10-05T04:23:25.968Z,45.60
2017-10-05T04:25:54.322Z,45.30
2017-10-05T04:28:21.952Z,45.30
2017-10-05T04:30:49.572Z,45.30
2017-10-05T04:33:17.982Z,45.20
2017-10-05T04:35:45.568Z,45.20
2017-10-05T04:38:13.197Z,45.10
2017-10-05T04:40:40.790Z,45.10
2017-10-05T04:43:08.368Z,45.20
2017-10-05T04:45:36.115Z,45.30
2017-10-05T04:48:03.708Z,45.20
2017-10-05T04:50:32.058Z,45.20
2017-10-05T04:52:59.684Z,45.20
2017-10-05T04:55:27.269Z,45.20
2017-10-05T04:57:54.906Z,45.20
2017-10-05T05:00:22.511Z,45.20
2017-10-05T05:02:50.148Z,45.30
2017-10-05T05:05:17.753Z,45.30
2017-10-05T05:07:46.116Z,45.30
2017-10-05T05:10:13.726Z,45.30
2017-10-05T05:12:41.310Z,45.30
2017-10-05T05:15:09.696Z,45.20
2017-10-05T05:17:37.318Z,45.20
2017-10-05T05:20:05.024Z,45.20
2017-10-05T05:22:32.644Z,45.20
2017-10-05T05:25:00.220Z,45.30
2017-10-05T05:27:27.832Z,45.50
2017-10-05T05:29:56.204Z,45.70
2017-10-05T05:32:23.855Z,45.60
2017-10-05T05:34:51.474Z,45.50
2017-10-05T05:37:19.045Z,45.90
2017-10-05T05:39:46.653Z,46.20
2017-10-05T05:42:15.364Z,47.50
2017-10-05T05:44:42.940Z,47.60
2017-10-05T05:47:10.600Z,47.50
2017-10-05T05:49:38.341Z,47.50
2017-10-05T05:52:07.468Z,47.60
2017-10-05T05:54:35.080Z,47.70
2017-10-05T05:57:02.678Z,47.50
2017-10-05T05:59:30.342Z,47.80
2017-10-05T06:01:58.319Z,47.50
2017-10-05T06:04:25.936Z,47.50
2017-10-05T06:06:54.430Z,47.10
2017-10-05T06:09:22.849Z,46.90
2017-10-05T06:11:50.428Z,47.00
2017-10-05T06:14:18.020Z,46.30
2017-10-05T06:16:46.536Z,44.60
2017-10-05T06:19:14.128Z,44.60
2017-10-05T06:21:41.764Z,41.00
2017-10-05T06:24:09.418Z,40.40
2017-10-05T06:26:37.042Z,40.30
2017-10-05T06:29:05.563Z,37.80
2017-10-05T06:31:33.158Z,37.80
2017-10-05T06:34:00.800Z,37.50
2017-10-05T06:36:28.432Z,37.00
2017-10-05T06:38:56.152Z,36.90
2017-10-05T06:41:24.658Z,36.30
2017-10-05T06:43:53.035Z,36.20
2017-10-05T06:46:21.544Z,36.20
2017-10-05T06:48:49.166Z,36.10
2017-10-05T06:51:16.833Z,35.10
2017-10-05T06:53:45.340Z,34.60
2017-10-05T06:56:12.932Z,34.80
2017-10-05T06:58:40.516Z,34.40
2017-10-05T07:01:08.156Z,34.70
2017-10-05T07:03:35.742Z,34.40
2017-10-05T07:06:03.353Z,34.40
2017-10-05T07:08:30.921Z,34.40
2017-10-05T07:10:58.497Z,34.40
2017-10-05T07:13:26.144Z,34.30
2017-10-05T07:15:53.729Z,34.10
2017-10-05T07:18:21.378Z,34.40
2017-10-05T07:20:48.931Z,34.70
2017-10-05T07:23:16.633Z,35.30
2017-10-05T07:25:45.024Z,36.20
2017-10-05T07:28:13.403Z,36.60
2017-10-05T07:30:41.780Z,37.40
2017-10-05T07:33:10.208Z,37.40
2017-10-05T07:35:37.779Z,37.40
2017-10-05T07:38:05.376Z,37.90
2017-10-05T07:40:33.755Z,37.70
2017-10-05T07:43:02.084Z,37.90
2017-10-05T07:45:29.735Z,37.90
2017-10-05T07:47:58.118Z,38.50
2017-10-05T07:50:25.746Z,38.50
2017-10-05T07:52:53.466Z,38.40
2017-10-05T07:55:21.080Z,37.60
2017-10-05T07:57:48.860Z,37.10
2017-10-05T08:00:16.484Z,37.10
2017-10-05T08:02:44.818Z,37.10
2017-10-05T08:05:12.420Z,37.10
2017-10-05T08:07:40.826Z,37.10
2017-10-05T08:10:08.384Z,37.20
2017-10-05T08:12:36.731Z,37.40
2017-10-05T08:15:04.416Z,37.40
2017-10-05T08:17:33.022Z,37.40
2017-10-05T08:20:00.620Z,37.50
2017-10-05T08:22:28.240Z,37.60
2017-10-05T08:24:55.810Z,37.70
2017-10-05T08:27:23.424Z,37.80
2017-10-05T08:29:51.823Z,37.70
2017-10-05T08:32:20.170Z,37.80
2017-10-05T08:34:47.970Z,37.90
2017-10-05T08:37:15.642Z,37.80
2017-10-05T08:39:43.292Z,37.80
2017-10-05T08:42:10.876Z,38.00
2017-10-05T08:44:38.559Z,37.80
2017-10-05T08:47:06.177Z,37.90
2017-10-05T08:49:33.769Z,37.90
2017-10-05T08:52:01.383Z,38.00
2017-10-05T08:54:29.725Z,37.90
2017-10-05T08:56:57.317Z,38.00
2017-10-05T08:59:25.693Z,38.10
2017-10-05T09:01:54.170Z,38.10
2017-10-05T09:04:22.507Z,38.10
2017-10-05T09:06:50.083Z,38.10
2017-10-05T09:09:17.817Z,38.30
2017-10-05T09:11:45.613Z,38.30
2017-10-05T09:14:13.239Z,38.30
2017-10-05T09:16:40.909Z,38.30
2017-10-05T09:19:08.547Z,38.30
2017-10-05T09:21:36.147Z,38.30
2017-10-05T09:26:27.509Z,38.20
2017-10-05T09:28:55.086Z,38.30
2017-10-05T09:31:23.423Z,38.30
2017-10-05T09:33:51.045Z,38.40
2017-10-05T09:36:18.680Z,38.40
2017-10-05T09:38:47.103Z,38.30
2017-10-05T09:41:14.749Z,38.40
2017-10-05T09:43:42.374Z,38.30
2017-10-05T09:46:10.743Z,38.30
2017-10-05T09:48:38.371Z,38.30
2017-10-05T09:51:05.952Z,38.30
2017-10-05T09:53:33.542Z,38.50
2017-10-05T09:56:01.929Z,38.80
2017-10-05T09:58:30.309Z,40.80
2017-10-05T10:00:58.839Z,40.80
2017-10-05T10:03:26.426Z,40.80
2017-10-05T10:05:54.101Z,40.70
2017-10-05T10:08:22.503Z,39.80
2017-10-05T10:10:50.097Z,39.80
2017-10-05T10:13:17.720Z,39.70
2017-10-05T10:15:45.360Z,39.70
2017-10-05T10:18:13.749Z,39.40
2017-10-05T10:20:42.158Z,39.40
2017-10-05T10:23:09.741Z,39.40
2017-10-05T10:25:37.441Z,39.40
2017-10-05T10:28:05.777Z,39.40
2017-10-05T10:30:33.373Z,39.40
2017-10-05T10:33:02.473Z,39.50
2017-10-05T10:35:30.055Z,39.50
2017-10-05T10:37:57.675Z,39.40
2017-10-05T10:40:26.783Z,39.30
2017-10-05T10:42:55.177Z,39.30
2017-10-05T10:45:23.593Z,39.50
2017-10-05T10:47:51.181Z,39.50
2017-10-05T10:50:18.927Z,39.50
2017-10-05T10:52:46.534Z,39.60
2017-10-05T10:55:15.029Z,39.80
2017-10-05T10:57:43.506Z,39.80
2017-10-05T11:00:11.897Z,40.20
2017-10-05T11:02:39.475Z,40.10
2017-10-05T11:05:07.093Z,40.00
2017-10-05T11:07:35.459Z,39.90
2017-10-05T11:10:03.017Z,40.00
2017-10-05T11:12:30.614Z,40.00
2017-10-05T11:14:58.512Z,40.00
2017-10-05T11:17:26.083Z,40.10
2017-10-05T11:19:53.665Z,40.10
2017-10-05T11:22:21.383Z,40.10
2017-10-05T11:24:48.967Z,40.20
2017-10-05T11:27:16.580Z,40.10
2017-10-05T11:29:44.941Z,40.10
2017-10-05T11:32:13.301Z,40.20
2017-10-05T11:34:40.886Z,40.30
2017-10-05T11:37:09.255Z,40.30
2017-10-05T11:39:37.003Z,40.40
2017-10-05T11:42:04.612Z,40.40
2017-10-05T11:44:32.499Z,40.80
2017-10-05T11:47:00.077Z,40.80
2017-10-05T11:49:27.671Z,40.60
2017-10-05T11:51:56.263Z,40.70
2017-10-05T11:54:24.661Z,40.50
2017-10-05T11:56:52.245Z,40.50
2017-10-05T11:59:19.847Z,40.70
2017-10-05T12:01:48.397Z,40.40
2017-10-05T12:04:16.039Z,40.40
2017-10-05T12:06:43.659Z,40.40
2017-10-05T12:09:12.135Z,40.30
2017-10-05T12:11:39.765Z,40.30
2017-10-05T12:14:07.403Z,40.70
2017-10-05T12:16:34.979Z,40.40
2017-10-05T12:19:02.604Z,40.50
2017-10-05T12:21:30.339Z,40.50
2017-10-05T12:23:57.924Z,40.30
2017-10-05T12:26:25.553Z,40.60
2017-10-05T12:28:53.146Z,40.20
2017-10-05T12:31:21.497Z,40.10
2017-10-05T12:33:49.117Z,40.20
2017-10-05T12:36:16.753Z,40.70
2017-10-05T12:38:44.335Z,40.30
2017-10-05T12:41:11.940Z,40.70
2017-10-05T12:43:40.319Z,40.30
2017-10-05T12:46:07.909Z,40.30
2017-10-05T12:48:35.532Z,41.10
2017-10-05T12:51:03.108Z,40.30
2017-10-05T12:53:31.476Z,40.30
2017-10-05T12:55:59.346Z,40.30
2017-10-05T12:58:26.961Z,40.50
2017-10-05T13:00:54.561Z,41.30
2017-10-05T13:03:22.957Z,40.80
2017-10-05T13:05:51.291Z,40.80
2017-10-05T13:08:18.868Z,40.80
2017-10-05T13:10:46.526Z,40.70
2017-10-05T13:13:14.127Z,40.70
2017-10-05T13:15:42.633Z,40.80
2017-10-05T13:18:10.257Z,40.80
2017-10-05T13:20:38.640Z,40.80
2017-10-05T13:23:07.009Z,40.80
2017-10-05T13:25:34.613Z,40.80
2017-10-05T13:28:02.285Z,41.00
2017-10-05T13:30:29.887Z,40.80
2017-10-05T13:32:57.489Z,40.70
2017-10-05T13:35:25.150Z,40.90
2017-10-05T13:37:52.749Z,40.80
2017-10-05T13:40:20.329Z,40.70
2017-10-05T13:42:47.938Z,40.80
2017-10-05T13:45:15.670Z,40.80
2017-10-05T13:47:44.285Z,40.80
2017-10-05T13:50:11.891Z,40.80
2017-10-05T13:52:39.505Z,40.70
2017-10-05T13:55:07.270Z,40.70
2017-10-05T13:57:34.870Z,40.70
2017-10-05T14:00:02.525Z,40.70
2017-10-05T14:02:30.156Z,40.70
2017-10-05T14:04:57.994Z,40.70
2017-10-05T14:07:25.647Z,40.70
2017-10-05T14:09:54.009Z,40.70
2017-10-05T14:12:21.595Z,40.70
2017-10-05T14:14:49.222Z,40.70
2017-10-05T14:17:16.822Z,40.60
2017-10-05T14:19:44.722Z,40.70
2017-10-05T14:22:12.389Z,40.70
2017-10-05T14:24:40.177Z,40.60
2017-10-05T14:27:07.797Z,40.70
2017-10-05T14:29:35.372Z,40.70
2017-10-05T14:32:02.985Z,40.60
2017-10-05T14:34:31.401Z,40.70
2017-10-05T14:36:59.139Z,40.70
2017-10-05T14:39:26.831Z,40.60
2017-10-05T14:41:54.553Z,40.70
2017-10-05T14:44:22.971Z,40.70
2017-10-05T14:46:50.565Z,40.70
2017-10-05T14:49:18.167Z,40.70
2017-10-05T14:51:45.803Z,40.70
2017-10-05T14:54:14.240Z,40.70
2017-10-05T14:56:41.864Z,40.70
2017-10-05T14:59:10.221Z,40.70
2017-10-05T15:01:37.816Z,40.70
2017-10-05T15:04:05.503Z,40.70
2017-10-05T15:06:33.110Z,40.80
2017-10-05T15:09:01.466Z,40.80
2017-10-05T15:11:29.057Z,40.80
2017-10-05T15:13:57.439Z,40.80
2017-10-05T15:16:25.871Z,40.90
2017-10-05T15:18:53.763Z,40.90
2017-10-05T15:21:21.341Z,40.90
2017-10-05T15:23:49.726Z,42.70
2017-10-05T15:26:17.461Z,42.60
2017-10-05T15:28:45.057Z,43.20
2017-10-05T15:31:12.662Z,45.80
2017-10-05T15:33:40.409Z,49.10
2017-10-05T15:36:08.013Z,50.00
2017-10-05T15:38:35.654Z,52.20
2017-10-05T15:41:03.264Z,52.20
2017-10-05T15:43:30.880Z,52.20
2017-10-05T15:45:58.497Z,52.20
2017-10-05T15:48:26.118Z,53.40
2017-10-05T15:50:53.808Z,53.70
2017-10-05T15:53:21.592Z,53.70
2017-10-05T15:55:49.218Z,54.30
2017-10-05T15:58:17.590Z,52.40
2017-10-05T16:00:46.022Z,53.00
2017-10-05T16:03:13.648Z,52.30
2017-10-05T16:05:41.368Z,52.10
2017-10-05T16:08:09.002Z,52.30
2017-10-05T16:10:36.592Z,54.30
2017-10-05T16:13:04.216Z,53.50
2017-10-05T16:15:31.810Z,54.50
2017-10-05T16:17:59.407Z,54.40
2017-10-05T16:20:27.774Z,54.40
2017-10-05T16:22:56.155Z,52.40
2017-10-05T16:25:24.578Z,52.50
2017-10-05T16:27:52.216Z,52.50
2017-10-05T16:30:20.226Z,53.70
2017-10-05T16:32:47.824Z,54.70
2017-10-05T16:35:15.411Z,53.20
2017-10-05T16:37:43.092Z,51.50
2017-10-05T16:40:11.124Z,47.20
2017-10-05T16:42:39.673Z,46.60
2017-10-05T16:45:07.337Z,46.60
2017-10-05T16:47:35.020Z,45.70
2017-10-05T16:50:02.628Z,47.20
2017-10-05T16:52:30.236Z,47.80
2017-10-05T16:54:57.872Z,47.80
2017-10-05T16:57:25.440Z,48.30
2017-10-05T16:59:53.246Z,48.20
2017-10-05T17:02:21.615Z,47.70
2017-10-05T17:04:50.034Z,47.80
2017-10-05T17:07:17.630Z,47.90
2017-10-05T17:09:45.240Z,47.50
2017-10-05T17:12:13.709Z,47.30
2017-10-05T17:14:42.065Z,47.10
2017-10-05T17:17:09.697Z,47.20
2017-10-05T17:19:37.296Z,47.30
2017-10-05T17:22:06.040Z,47.90
2017-10-05T17:24:33.822Z,47.90
2017-10-05T17:27:01.402Z,47.40
2017-10-05T17:29:29.027Z,47.40
2017-10-05T17:31:56.670Z,46.70
2017-10-05T17:34:24.255Z,46.60
2017-10-05T17:36:51.860Z,46.60
2017-10-05T17:39:20.246Z,46.60
2017-10-05T17:41:48.033Z,46.60
2017-10-05T17:44:15.797Z,46.60
2017-10-05T17:46:43.386Z,46.60
2017-10-05T17:49:11.178Z,48.00
2017-10-05T17:51:39.563Z,48.00
2017-10-05T17:54:07.988Z,47.10
2017-10-05T17:56:35.632Z,47.20
2017-10-05T17:59:03.211Z,47.10
2017-10-05T18:01:30.829Z,47.00
2017-10-05T18:03:59.171Z,47.40
2017-10-05T18:06:26.740Z,46.90
2017-10-05T18:08:55.866Z,46.80
2017-10-05T18:11:24.238Z,46.60
2017-10-05T18:13:52.614Z,46.70
2017-10-05T18:16:20.966Z,46.70
2017-10-05T18:18:48.587Z,46.60
2017-10-05T18:21:16.220Z,46.60
2017-10-05T18:23:44.579Z,46.60
2017-10-05T18:26:12.241Z,46.60
2017-10-05T18:28:39.889Z,46.60
2017-10-05T18:31:07.534Z,46.60
2017-10-05T18:33:35.245Z,46.60
2017-10-05T18:36:04.083Z,46.60
2017-10-05T18:38:31.744Z,46.60
2017-10-05T18:40:59.354Z,46.60
2017-10-05T18:43:27.694Z,46.60
2017-10-05T18:45:55.347Z,46.60
2017-10-05T18:48:22.963Z,46.60
2017-10-05T18:50:50.628Z,46.60
2017-10-05T18:53:19.018Z,46.60
2017-10-05T18:55:46.729Z,46.60
2017-10-05T18:58:14.365Z,44.60
2017-10-05T19:00:42.002Z,42.40
2017-10-05T19:03:09.598Z,40.50
2017-10-05T19:05:37.224Z,40.40
2017-10-05T19:08:04.841Z,40.20
2017-10-05T19:10:32.422Z,39.90
2017-10-05T19:13:00.783Z,39.50
2017-10-05T19:15:29.182Z,39.40
2017-10-05T19:17:57.568Z,38.10
2017-10-05T19:20:25.564Z,38.20
2017-10-05T19:22:53.160Z,37.50
2017-10-05T19:25:20.764Z,36.50
2017-10-05T19:27:49.335Z,37.60
2017-10-05T19:30:17.869Z,37.10
2017-10-05T19:32:45.495Z,37.10
2017-10-05T19:35:13.304Z,37.20
2017-10-05T19:37:40.929Z,37.00
2017-10-05T19:40:08.517Z,37.30
2017-10-05T19:42:36.370Z,36.80
2017-10-05T19:45:04.014Z,36.40
2017-10-05T19:47:31.613Z,36.80
2017-10-05T19:49:59.209Z,36.70
2017-10-05T19:52:27.623Z,36.80
2017-10-05T19:54:55.324Z,36.70
2017-10-05T19:57:22.946Z,36.70
2017-10-05T19:59:50.566Z,36.70
2017-10-05T20:02:18.986Z,38.20
2017-10-05T20:04:46.572Z,38.10
2017-10-05T20:07:14.213Z,38.90
2017-10-05T20:09:41.876Z,38.10
2017-10-05T20:12:09.468Z,37.70
2017-10-05T20:14:43.550Z,37.30
2017-10-05T20:17:12.003Z,37.40
2017-10-05T20:22:49.863Z,39.00
2017-10-05T20:25:32.345Z,39.20
2017-10-05T20:28:11.806Z,39.30
2017-10-05T20:30:41.095Z,39.30
2017-10-05T20:33:08.708Z,39.30
2017-10-05T20:35:36.290Z,39.50
2017-10-05T20:38:04.833Z,39.60
2017-10-05T20:40:32.425Z,39.60
2017-10-05T20:43:00.792Z,39.40
2017-10-05T20:45:29.183Z,39.50
2017-10-05T20:47:57.799Z,39.50
2017-10-05T20:50:25.400Z,39.60
2017-10-05T20:52:52.988Z,39.50
2017-10-05T20:55:21.449Z,39.40
2017-10-05T20:57:49.978Z,38.80
2017-10-05T21:00:17.817Z,38.90
2017-10-05T21:02:45.400Z,39.30
2017-10-05T21:05:13.041Z,39.20
2017-10-05T21:07:41.380Z,40.20
2017-10-05T21:10:09.065Z,39.70
2017-10-05T21:12:36.689Z,39.60
2017-10-05T21:15:04.297Z,39.60
2017-10-05T21:17:31.878Z,39.20
2017-10-05T21:19:59.500Z,39.50
2017-10-05T21:22:27.268Z,38.90
2017-10-05T21:24:55.842Z,38.30
2017-10-05T21:27:23.453Z,38.30
2017-10-05T21:29:51.032Z,38.00
2017-10-05T21:32:18.636Z,38.10
2017-10-05T21:34:47.297Z,37.70
2017-10-05T21:37:14.890Z,37.70
2017-10-05T21:39:43.324Z,37.30
2017-10-05T21:42:10.922Z,37.30
2017-10-05T21:44:39.477Z,37.10
2017-10-05T21:47:07.142Z,37.10
2017-10-05T21:49:34.778Z,36.70
2017-10-05T21:52:02.396Z,36.60
2017-10-05T21:54:30.724Z,36.40
2017-10-05T21:56:58.303Z,36.40
2017-10-05T21:59:25.926Z,36.50
2017-10-05T22:01:53.510Z,36.40
2017-10-05T22:04:21.087Z,36.20
2017-10-05T22:06:48.690Z,36.20
2017-10-05T22:09:16.265Z,36.10
2017-10-05T22:11:43.893Z,36.00
2017-10-05T22:14:12.235Z,35.70
2017-10-05T22:16:39.876Z,35.60
2017-10-05T22:19:07.641Z,35.80
2017-10-05T22:21:35.280Z,35.60
2017-10-05T22:24:02.861Z,35.60
2017-10-05T22:26:30.430Z,35.20
2017-10-05T22:28:58.048Z,34.90
2017-10-05T22:31:26.401Z,34.30
2017-10-05T22:33:54.103Z,34.40
2017-10-05T22:36:21.748Z,35.40
2017-10-05T22:38:50.171Z,36.90
2017-10-05T22:41:17.781Z,36.90
2017-10-05T22:43:46.171Z,36.60
2017-10-05T22:46:14.561Z,36.80
2017-10-05T22:48:42.261Z,36.90
2017-10-05T22:51:09.857Z,36.80
2017-10-05T22:53:38.208Z,37.00
2017-10-05T22:56:05.840Z,37.10
2017-10-05T22:58:33.436Z,37.10
2017-10-05T23:01:01.043Z,37.20
2017-10-05T23:03:28.638Z,37.30
2017-10-05T23:05:56.279Z,37.50
2017-10-05T23:08:24.024Z,37.60
2017-10-05T23:10:51.804Z,37.80
2017-10-05T23:13:19.451Z,38.00
2017-10-05T23:15:47.117Z,38.10
2017-10-05T23:18:14.714Z,38.20
2017-10-05T23:20:42.352Z,38.30
2017-10-05T23:23:09.955Z,38.50
2017-10-05T23:25:39.033Z,38.70
2017-10-05T23:28:06.704Z,38.60
2017-10-05T23:30:34.457Z,39.20
2017-10-05T23:33:02.041Z,38.90
2017-10-05T23:35:29.668Z,39.10
2017-10-05T23:37:57.287Z,39.20
2017-10-05T23:40:25.621Z,39.40
2017-10-05T23:42:53.193Z,39.40
2017-10-05T23:45:20.772Z,39.60
2017-10-05T23:47:49.140Z,39.80
2017-10-05T23:50:16.723Z,40.00
2017-10-05T23:52:44.362Z,40.10
2017-10-05T23:55:12.724Z,40.70
2017-10-05T23:57:40.487Z,40.20
